createdAt,value
2022-12-24T00:02:56.432Z,8.51
2022-12-24T00:06:03.771Z,8.51
2022-12-24T00:09:05.492Z,8.50
2022-12-24T00:12:07.404Z,8.49
2022-12-24T00:15:09.369Z,8.48
2022-12-24T00:18:10.908Z,8.48
2022-12-24T00:21:13.889Z,8.49
2022-12-24T00:24:15.437Z,8.49
2022-12-24T00:27:17.250Z,8.49
2022-12-24T00:30:18.941Z,8.47
2022-12-24T00:33:24.705Z,8.46
2022-12-24T00:36:27.830Z,8.46
2022-12-24T00:39:29.715Z,8.46
2022-12-24T00:42:31.227Z,8.46
2022-12-24T00:45:32.697Z,8.46
2022-12-24T00:48:34.384Z,8.43
2022-12-24T00:51:37.417Z,8.44
2022-12-24T00:54:39.015Z,8.41
2022-12-24T00:57:40.547Z,8.41
2022-12-24T01:00:42.057Z,8.39
2022-12-24T01:03:43.739Z,8.37
2022-12-24T01:06:46.703Z,8.37
2022-12-24T01:09:48.180Z,8.37
2022-12-24T01:12:49.752Z,8.35
2022-12-24T01:15:51.673Z,8.33
2022-12-24T01:18:53.189Z,8.32
2022-12-24T01:21:56.073Z,8.30
2022-12-24T01:24:57.586Z,8.29
2022-12-24T01:27:59.194Z,8.27
2022-12-24T01:31:00.952Z,8.28
2022-12-24T01:34:03.635Z,8.29
2022-12-24T01:37:06.636Z,8.28
2022-12-24T01:40:29.316Z,8.30
2022-12-24T01:43:32.585Z,8.29
2022-12-24T01:46:34.146Z,8.24
2022-12-24T01:49:37.582Z,8.23
2022-12-24T01:52:40.617Z,8.19
2022-12-24T01:55:42.961Z,8.14
2022-12-24T01:58:46.705Z,8.13
2022-12-24T02:01:49.813Z,8.10
2022-12-24T02:04:54.921Z,8.09
2022-12-24T02:08:01.910Z,8.07
2022-12-24T02:11:03.556Z,8.07
2022-12-24T02:14:05.391Z,8.07
2022-12-24T02:17:11.607Z,8.05
2022-12-24T02:20:32.229Z,8.07
2022-12-24T02:23:54.341Z,8.03
2022-12-24T02:27:04.528Z,8.01
2022-12-24T02:30:16.177Z,8.00
2022-12-24T02:33:29.491Z,7.96
2022-12-24T02:36:33.111Z,7.95
2022-12-24T02:39:38.454Z,7.96
2022-12-24T02:42:41.398Z,7.96
2022-12-24T02:45:46.741Z,8.00
2022-12-24T02:48:49.043Z,7.95
2022-12-24T02:51:50.793Z,8.00
2022-12-24T02:54:52.416Z,8.01
2022-12-24T02:58:00.930Z,8.02
2022-12-24T03:01:16.848Z,8.06
2022-12-24T03:04:39.599Z,8.00
2022-12-24T03:07:45.083Z,8.01
2022-12-24T03:10:51.579Z,8.01
2022-12-24T03:13:55.102Z,8.01
2022-12-24T03:16:59.082Z,7.96
2022-12-24T03:20:00.691Z,7.92
2022-12-24T03:23:02.551Z,7.90
2022-12-24T03:26:07.096Z,7.89
2022-12-24T03:29:08.679Z,7.91
2022-12-24T03:32:11.925Z,7.87
2022-12-24T03:35:13.727Z,7.89
2022-12-24T03:38:15.239Z,7.90
2022-12-24T03:41:16.833Z,7.88
2022-12-24T03:44:18.662Z,7.85
2022-12-24T03:47:21.721Z,7.82
2022-12-24T03:50:23.395Z,7.78
2022-12-24T03:53:25.097Z,7.75
2022-12-24T03:56:27.213Z,7.73
2022-12-24T03:59:31.976Z,7.73
2022-12-24T04:02:35.138Z,7.70
2022-12-24T04:05:36.764Z,7.72
2022-12-24T04:08:38.378Z,7.75
2022-12-24T04:11:39.961Z,7.75
2022-12-24T04:14:41.495Z,7.76
2022-12-24T04:17:44.461Z,7.76
2022-12-24T04:20:46.451Z,7.77
2022-12-24T04:23:48.201Z,7.79
2022-12-24T04:26:49.868Z,7.77
2022-12-24T04:29:51.560Z,7.76
2022-12-24T04:32:54.506Z,7.77
2022-12-24T04:35:57.079Z,7.76
2022-12-24T04:38:58.688Z,7.77
2022-12-24T04:42:00.289Z,7.77
2022-12-24T04:45:01.904Z,7.74
2022-12-24T04:48:05.134Z,7.73
2022-12-24T04:51:07.692Z,7.71
2022-12-24T04:54:09.476Z,7.73
2022-12-24T04:57:11.048Z,7.72
2022-12-24T05:00:12.989Z,7.73
2022-12-24T05:03:15.917Z,7.75
2022-12-24T05:06:20.054Z,7.76
2022-12-24T05:09:21.797Z,7.76
2022-12-24T05:12:23.729Z,7.75
2022-12-24T05:15:25.407Z,7.75
2022-12-24T05:18:28.478Z,7.73
2022-12-24T05:21:30.130Z,7.69
2022-12-24T05:24:50.246Z,7.69
2022-12-24T05:27:53.051Z,7.65
2022-12-24T05:30:55.086Z,7.62
2022-12-24T05:34:01.568Z,7.59
2022-12-24T05:37:03.309Z,7.57
2022-12-24T05:40:05.602Z,7.59
2022-12-24T05:43:07.354Z,7.58
2022-12-24T05:46:09.983Z,7.56
2022-12-24T05:49:13.375Z,7.56
2022-12-24T05:52:14.892Z,7.53
2022-12-24T05:55:16.574Z,7.50
2022-12-24T05:58:18.227Z,7.46
2022-12-24T06:01:20.736Z,7.45
2022-12-24T06:04:28.660Z,7.50
2022-12-24T06:07:30.865Z,7.49
2022-12-24T06:10:32.503Z,7.45
2022-12-24T06:13:34.580Z,7.45
2022-12-24T06:16:36.133Z,7.42
2022-12-24T06:19:39.455Z,7.40
2022-12-24T06:22:41.088Z,7.41
2022-12-24T06:25:42.765Z,7.39
2022-12-24T06:28:47.557Z,7.37
2022-12-24T06:31:49.174Z,7.32
2022-12-24T06:34:52.258Z,7.33
2022-12-24T06:37:53.910Z,7.35
2022-12-24T06:40:56.033Z,7.40
2022-12-24T06:43:57.630Z,7.43
2022-12-24T06:46:59.372Z,7.41
2022-12-24T06:50:02.366Z,7.40
2022-12-24T06:53:03.921Z,7.43
2022-12-24T06:56:06.747Z,7.43
2022-12-24T06:59:08.423Z,7.44
2022-12-24T07:02:10.363Z,7.45
2022-12-24T07:05:13.761Z,7.43
2022-12-24T07:08:15.289Z,7.44
2022-12-24T07:11:16.848Z,7.45
2022-12-24T07:14:18.439Z,7.45
2022-12-24T07:17:20.212Z,7.45
2022-12-24T07:20:23.317Z,7.45
2022-12-24T07:23:25.156Z,7.41
2022-12-24T07:26:27.037Z,7.42
2022-12-24T07:29:32.020Z,7.38
2022-12-24T07:32:34.045Z,7.37
2022-12-24T07:35:37.104Z,7.38
2022-12-24T07:38:39.059Z,7.40
2022-12-24T07:41:41.831Z,7.38
2022-12-24T07:44:43.806Z,7.38
2022-12-24T07:47:45.288Z,7.44
2022-12-24T07:50:50.254Z,7.46
2022-12-24T07:53:54.307Z,7.48
2022-12-24T07:56:55.899Z,7.50
2022-12-24T07:59:57.429Z,7.45
2022-12-24T08:03:00.418Z,7.43
2022-12-24T08:06:03.614Z,7.39
2022-12-24T08:09:05.832Z,7.41
2022-12-24T08:12:07.634Z,7.44
2022-12-24T08:15:09.633Z,7.50
2022-12-24T08:18:14.863Z,7.52
2022-12-24T08:21:18.051Z,7.48
2022-12-24T08:24:19.913Z,7.44
2022-12-24T08:27:21.479Z,7.40
2022-12-24T08:30:23.246Z,7.44
2022-12-24T08:33:24.757Z,7.48
2022-12-24T08:36:27.884Z,7.47
2022-12-24T08:39:29.496Z,7.47
2022-12-24T08:42:31.143Z,7.44
2022-12-24T08:45:39.661Z,7.42
2022-12-24T08:48:41.971Z,7.45
2022-12-24T08:51:44.977Z,7.44
2022-12-24T08:54:46.603Z,7.45
2022-12-24T08:57:48.886Z,7.45
2022-12-24T09:00:50.505Z,7.46
2022-12-24T09:03:52.402Z,7.45
2022-12-24T09:06:55.817Z,7.46
2022-12-24T09:09:58.308Z,7.45
2022-12-24T09:13:00.154Z,7.41
2022-12-24T09:16:02.258Z,7.37
2022-12-24T09:19:03.920Z,7.35
2022-12-24T09:22:06.813Z,7.36
2022-12-24T09:25:10.559Z,7.42
2022-12-24T09:28:13.053Z,7.42
2022-12-24T09:31:15.202Z,7.43
2022-12-24T09:34:16.940Z,7.47
2022-12-24T09:37:20.038Z,7.49
2022-12-24T09:40:25.057Z,7.50
2022-12-24T09:43:29.037Z,7.43
2022-12-24T09:46:33.180Z,7.31
2022-12-24T09:49:40.084Z,7.31
2022-12-24T09:52:44.240Z,7.24
2022-12-24T09:55:47.519Z,7.24
2022-12-24T09:58:50.837Z,7.26
2022-12-24T10:01:53.126Z,7.31
2022-12-24T10:04:54.807Z,7.39
2022-12-24T10:08:02.971Z,7.54
2022-12-24T10:11:07.766Z,7.59
2022-12-24T10:14:16.684Z,7.65
2022-12-24T10:17:25.359Z,7.70
2022-12-24T10:20:35.339Z,7.72
2022-12-24T10:23:41.607Z,7.75
2022-12-24T10:26:45.180Z,7.79
2022-12-24T10:29:49.474Z,7.78
2022-12-24T10:32:54.841Z,7.79
2022-12-24T10:35:57.155Z,7.79
2022-12-24T10:39:00.349Z,7.79
2022-12-24T10:42:01.998Z,7.81
2022-12-24T10:45:04.631Z,7.86
2022-12-24T10:48:09.430Z,7.87
2022-12-24T10:51:15.015Z,7.90
2022-12-24T10:54:26.266Z,7.92
2022-12-24T10:57:29.155Z,7.94
2022-12-24T11:00:35.902Z,7.94
2022-12-24T11:03:39.270Z,7.97
2022-12-24T11:06:51.571Z,8.00
2022-12-24T11:09:58.680Z,8.03
2022-12-24T11:13:35.616Z,8.06
2022-12-24T11:16:25.668Z,8.07
2022-12-24T11:19:34.332Z,8.08
2022-12-24T11:22:36.055Z,8.09
2022-12-24T11:25:40.218Z,8.09
2022-12-24T11:28:41.724Z,8.11
2022-12-24T11:31:43.353Z,8.13
2022-12-24T11:34:45.288Z,8.13
2022-12-24T11:37:47.127Z,8.09
2022-12-24T11:40:51.126Z,8.09
2022-12-24T11:44:03.796Z,8.10
2022-12-24T11:47:05.415Z,8.13
2022-12-24T11:50:20.601Z,8.14
2022-12-24T11:53:26.038Z,8.13
2022-12-24T11:56:33.550Z,8.12
2022-12-24T11:59:39.093Z,8.18
2022-12-24T12:02:42.782Z,8.23
2022-12-24T12:05:45.006Z,8.28
2022-12-24T12:08:47.410Z,8.33
2022-12-24T12:11:55.948Z,8.36
2022-12-24T12:15:00.233Z,8.34
2022-12-24T12:18:07.086Z,8.34
2022-12-24T12:21:12.408Z,8.33
2022-12-24T12:24:16.932Z,8.31
2022-12-24T12:27:25.296Z,8.30
2022-12-24T12:30:26.994Z,8.27
2022-12-24T12:33:31.855Z,8.30
2022-12-24T12:36:36.340Z,8.29
2022-12-24T12:39:37.892Z,8.25
2022-12-24T12:42:45.450Z,8.20
2022-12-24T12:45:53.009Z,8.14
2022-12-24T12:49:03.253Z,8.14
2022-12-24T12:52:08.526Z,8.14
2022-12-24T12:55:24.374Z,8.12
2022-12-24T12:58:30.394Z,8.13
2022-12-24T13:01:38.230Z,8.09
2022-12-24T13:05:00.910Z,8.08
2022-12-24T13:08:19.164Z,8.10
2022-12-24T13:11:28.172Z,8.20
2022-12-24T13:14:56.848Z,8.23
2022-12-24T13:18:08.251Z,8.24
2022-12-24T13:21:15.784Z,8.30
2022-12-24T13:24:21.277Z,8.32
2022-12-24T13:27:24.197Z,8.30
2022-12-24T13:30:33.840Z,8.31
2022-12-24T13:33:49.865Z,8.34
2022-12-24T13:37:02.805Z,8.37
2022-12-24T13:40:15.676Z,8.35
2022-12-24T13:43:17.471Z,8.38
2022-12-24T13:46:33.899Z,8.39
2022-12-24T13:49:38.264Z,8.36
2022-12-24T13:52:42.640Z,8.35
2022-12-24T13:55:49.402Z,8.33
2022-12-24T13:58:52.830Z,8.32
2022-12-24T14:01:54.715Z,8.32
2022-12-24T14:05:01.222Z,8.34
2022-12-24T14:08:05.132Z,8.38
2022-12-24T14:11:09.228Z,8.41
2022-12-24T14:14:25.448Z,8.42
2022-12-24T14:17:28.205Z,8.47
2022-12-24T14:20:33.238Z,8.43
2022-12-24T14:23:44.093Z,8.39
2022-12-24T14:26:47.946Z,8.41
2022-12-24T14:29:51.705Z,8.33
2022-12-24T14:32:53.730Z,8.35
2022-12-24T14:35:57.105Z,8.35
2022-12-24T14:39:00.457Z,8.33
2022-12-24T14:42:10.673Z,8.31
2022-12-24T14:45:17.550Z,8.27
2022-12-24T14:48:22.196Z,8.24
2022-12-24T14:51:32.021Z,8.23
2022-12-24T14:54:35.716Z,8.22
2022-12-24T14:57:37.374Z,8.17
2022-12-24T15:00:42.338Z,8.11
2022-12-24T15:03:44.050Z,8.07
2022-12-24T15:06:50.421Z,8.05
2022-12-24T15:09:54.249Z,8.01
2022-12-24T15:12:57.366Z,7.96
2022-12-24T15:15:59.090Z,7.89
2022-12-24T15:19:02.660Z,7.88
2022-12-24T15:22:09.200Z,7.87
2022-12-24T15:25:17.679Z,7.84
2022-12-24T15:28:19.831Z,7.81
2022-12-24T15:31:22.338Z,7.78
2022-12-24T15:34:28.063Z,7.74
2022-12-24T15:37:34.817Z,7.81
2022-12-24T15:40:36.599Z,7.80
2022-12-24T15:43:40.084Z,7.76
2022-12-24T15:46:41.721Z,7.75
2022-12-24T15:49:47.976Z,7.70
2022-12-24T15:53:20.222Z,7.68
2022-12-24T15:56:14.381Z,7.71
2022-12-24T15:59:31.614Z,7.62
2022-12-24T16:02:38.379Z,7.54
2022-12-24T16:05:40.355Z,7.53
2022-12-24T16:08:43.761Z,7.54
2022-12-24T16:11:45.549Z,7.53
2022-12-24T16:14:49.608Z,7.58
2022-12-24T16:17:53.090Z,7.55
2022-12-24T16:20:55.756Z,7.53
2022-12-24T16:24:06.371Z,7.51
2022-12-24T16:27:10.673Z,7.56
2022-12-24T16:30:12.756Z,7.46
2022-12-24T16:33:15.793Z,7.49
2022-12-24T16:36:17.307Z,7.48
2022-12-24T16:39:23.876Z,7.50
2022-12-24T16:42:44.169Z,7.47
2022-12-24T16:45:46.643Z,7.45
2022-12-24T16:48:49.003Z,7.39
2022-12-24T16:51:50.782Z,7.42
2022-12-24T16:54:54.159Z,7.38
2022-12-24T16:57:56.260Z,7.39
2022-12-24T17:00:59.453Z,7.34
2022-12-24T17:04:01.089Z,7.31
2022-12-24T17:07:02.717Z,7.31
2022-12-24T17:10:08.695Z,7.33
2022-12-24T17:13:10.449Z,7.28
2022-12-24T17:16:12.380Z,7.26
2022-12-24T17:19:13.924Z,7.22
2022-12-24T17:22:15.728Z,7.23
2022-12-24T17:25:18.748Z,7.23
2022-12-24T17:28:20.274Z,7.21
2022-12-24T17:31:22.182Z,7.23
2022-12-24T17:34:23.873Z,7.22
2022-12-24T17:37:25.419Z,7.25
2022-12-24T17:40:29.726Z,7.23
2022-12-24T17:43:32.547Z,7.21
2022-12-24T17:46:34.242Z,7.17
2022-12-24T17:49:36.057Z,7.16
2022-12-24T17:52:37.594Z,7.12
2022-12-24T17:55:41.142Z,7.09
2022-12-24T17:58:43.795Z,7.08
2022-12-24T18:01:45.519Z,7.06
2022-12-24T18:04:47.373Z,7.04
2022-12-24T18:07:49.014Z,7.00
2022-12-24T18:10:56.460Z,6.96
2022-12-24T18:14:00.125Z,6.96
2022-12-24T18:17:04.963Z,6.98
2022-12-24T18:20:07.650Z,6.96
2022-12-24T18:23:09.288Z,7.02
2022-12-24T18:26:12.501Z,7.02
2022-12-24T18:29:14.217Z,7.03
2022-12-24T18:32:16.909Z,7.00
2022-12-24T18:35:19.076Z,6.95
2022-12-24T18:38:20.625Z,6.98
2022-12-24T18:41:24.663Z,6.96
2022-12-24T18:44:26.247Z,6.88
2022-12-24T18:47:27.818Z,6.94
2022-12-24T18:50:29.486Z,6.91
2022-12-24T18:53:31.162Z,6.90
2022-12-24T18:56:34.257Z,6.87
2022-12-24T18:59:39.222Z,6.91
2022-12-24T19:02:40.950Z,6.92
2022-12-24T19:05:42.576Z,6.84
2022-12-24T19:09:01.160Z,6.82
2022-12-24T19:12:05.334Z,6.80
2022-12-24T19:15:07.355Z,6.84
2022-12-24T19:18:08.964Z,6.79
2022-12-24T19:21:12.104Z,6.75
2022-12-24T19:24:14.369Z,6.70
2022-12-24T19:27:17.376Z,6.64
2022-12-24T19:30:19.007Z,6.48
2022-12-24T19:33:20.659Z,6.34
2022-12-24T19:36:23.823Z,6.27
2022-12-24T19:39:31.556Z,6.21
2022-12-24T19:42:35.082Z,6.21
2022-12-24T19:45:36.676Z,6.24
2022-12-24T19:48:38.723Z,6.29
2022-12-24T19:51:40.257Z,6.44
2022-12-24T19:54:42.800Z,6.49
2022-12-24T19:57:45.729Z,6.51
2022-12-24T20:00:47.653Z,6.55
2022-12-24T20:03:49.817Z,6.53
2022-12-24T20:06:54.799Z,6.49
2022-12-24T20:10:01.631Z,6.45
2022-12-24T20:13:06.307Z,6.44
2022-12-24T20:16:09.157Z,6.37
2022-12-24T20:19:12.976Z,6.44
2022-12-24T20:22:14.533Z,6.39
2022-12-24T20:25:16.291Z,6.41
2022-12-24T20:28:19.148Z,6.42
2022-12-24T20:31:22.136Z,6.41
2022-12-24T20:34:23.785Z,6.37
2022-12-24T20:37:25.270Z,6.39
2022-12-24T20:40:26.920Z,6.42
2022-12-24T20:43:35.336Z,6.40
2022-12-24T20:46:39.987Z,6.44
2022-12-24T20:49:41.988Z,6.42
2022-12-24T20:52:43.680Z,6.38
2022-12-24T20:55:45.151Z,6.37
2022-12-24T20:58:48.173Z,6.39
2022-12-24T21:01:49.729Z,6.44
2022-12-24T21:04:54.180Z,6.44
2022-12-24T21:07:59.626Z,6.48
2022-12-24T21:11:19.970Z,6.42
2022-12-24T21:14:23.843Z,6.36
2022-12-24T21:17:25.500Z,6.33
2022-12-24T21:20:31.239Z,6.27
2022-12-24T21:23:32.756Z,6.18
2022-12-24T21:26:34.820Z,6.07
2022-12-24T21:29:37.716Z,6.01
2022-12-24T21:32:39.452Z,6.03
2022-12-24T21:35:40.930Z,6.07
2022-12-24T21:38:42.556Z,6.01
2022-12-24T21:41:44.302Z,5.97
2022-12-24T21:44:47.435Z,5.95
2022-12-24T21:47:49.413Z,5.92
2022-12-24T21:50:56.755Z,5.85
2022-12-24T21:54:17.079Z,5.80
2022-12-24T21:57:37.403Z,5.78
2022-12-24T22:00:40.403Z,5.75
2022-12-24T22:03:42.075Z,5.75
2022-12-24T22:07:03.327Z,5.74
2022-12-24T22:10:27.917Z,5.66
2022-12-24T22:13:30.932Z,5.67
2022-12-24T22:16:33.831Z,5.57
2022-12-24T22:19:35.466Z,5.51
2022-12-24T22:22:37.022Z,5.44
2022-12-24T22:25:39.138Z,5.35
2022-12-24T22:28:40.809Z,5.32
2022-12-24T22:31:43.878Z,5.34
2022-12-24T22:34:45.526Z,5.39
2022-12-24T22:37:47.251Z,5.32
2022-12-24T22:40:49.398Z,5.27
2022-12-24T22:43:50.985Z,5.30
2022-12-24T22:46:53.823Z,5.29
2022-12-24T22:49:58.547Z,5.30
2022-12-24T22:53:00.207Z,5.34
2022-12-24T22:56:02.002Z,5.39
2022-12-24T22:59:04.310Z,5.43
2022-12-24T23:02:07.604Z,5.38
2022-12-24T23:05:11.464Z,5.27
2022-12-24T23:08:13.533Z,5.23
2022-12-24T23:11:15.154Z,5.22
2022-12-24T23:14:36.174Z,5.20
2022-12-24T23:17:39.136Z,5.12
2022-12-24T23:20:41.202Z,5.07
2022-12-24T23:23:42.839Z,5.03
2022-12-24T23:26:44.362Z,4.94
2022-12-24T23:29:46.034Z,4.88
2022-12-24T23:32:48.918Z,4.83
2022-12-24T23:35:50.418Z,4.81
2022-12-24T23:38:52.941Z,4.83
2022-12-24T23:41:54.516Z,4.76
2022-12-24T23:44:56.150Z,4.71
2022-12-24T23:47:59.051Z,4.69
2022-12-24T23:51:05.534Z,4.69
2022-12-24T23:54:07.144Z,4.63
2022-12-24T23:57:08.701Z,4.59
